createdAt,value
2018-06-09T00:00:46.000Z,25.19
2018-06-09T00:10:46.000Z,25.14
2018-06-09T00:20:46.000Z,25.1
2018-06-09T00:30:46.000Z,25.08
2018-06-09T00:40:46.000Z,25.03
2018-06-09T00:50:47.000Z,25
2018-06-09T01:00:46.000Z,24.98
2018-06-09T01:10:46.000Z,24.92
2018-06-09T01:20:46.000Z,24.88
2018-06-09T01:30:46.000Z,24.87
2018-06-09T01:40:46.000Z,24.83
2018-06-09T01:50:46.000Z,24.78
2018-06-09T02:00:46.000Z,24.75
2018-06-09T02:10:46.000Z,24.64
2018-06-09T02:30:46.000Z,24.62
2018-06-09T02:40:46.000Z,24.57
2018-06-09T02:50:46.000Z,24.54
2018-06-09T03:00:46.000Z,24.52
2018-06-09T03:10:46.000Z,24.44
2018-06-09T03:20:46.000Z,24.52
2018-06-09T03:30:46.000Z,24.5
2018-06-09T03:40:46.000Z,24.48
2018-06-09T03:50:46.000Z,24.43
2018-06-09T04:00:46.000Z,24.42
2018-06-09T04:10:46.000Z,24.39
2018-06-09T04:20:46.000Z,24.34
2018-06-09T04:30:46.000Z,24.33
2018-06-09T04:40:46.000Z,24.32
2018-06-09T04:50:47.000Z,24.27
2018-06-09T05:00:46.000Z,24.29
2018-06-09T05:10:46.000Z,24.3
2018-06-09T05:20:46.000Z,24.32
2018-06-09T05:30:46.000Z,24.36
2018-06-09T05:40:47.000Z,24.39
2018-06-09T05:50:46.000Z,24.39
2018-06-09T06:00:46.000Z,24.41
2018-06-09T06:10:46.000Z,24.42
2018-06-09T06:20:46.000Z,24.45
2018-06-09T06:30:46.000Z,24.46
2018-06-09T06:40:46.000Z,24.49
2018-06-09T06:50:46.000Z,24.5
2018-06-09T07:00:47.000Z,24.58
2018-06-09T07:10:47.000Z,24.58
2018-06-09T07:20:47.000Z,24.61
2018-06-09T07:40:47.000Z,24.86
2018-06-09T07:50:48.000Z,25.01
2018-06-09T08:00:47.000Z,25.08
2018-06-09T08:10:47.000Z,25.21
2018-06-09T08:20:47.000Z,25.33
2018-06-09T08:30:47.000Z,25.41
2018-06-09T08:40:47.000Z,25.42
2018-06-09T08:50:47.000Z,25.44
2018-06-09T09:00:47.000Z,25.53
2018-06-09T09:10:47.000Z,25.71
2018-06-09T09:20:47.000Z,25.85
2018-06-09T09:30:47.000Z,26.01
2018-06-09T09:40:47.000Z,26.14
2018-06-09T09:50:47.000Z,26.22
2018-06-09T10:00:47.000Z,26.29
2018-06-09T10:10:47.000Z,26.34
2018-06-09T10:20:47.000Z,26.29
2018-06-09T10:30:47.000Z,26.36
2018-06-09T10:40:47.000Z,26.35
2018-06-09T10:50:47.000Z,26.51
2018-06-09T11:00:47.000Z,26.72
2018-06-09T11:10:47.000Z,26.8
2018-06-09T11:20:47.000Z,26.74
2018-06-09T11:30:47.000Z,27.04
2018-06-09T11:40:47.000Z,27
2018-06-09T11:50:47.000Z,27.1
2018-06-09T12:00:47.000Z,27.23
2018-06-09T12:10:47.000Z,27.09
2018-06-09T12:20:47.000Z,27.29
2018-06-09T12:30:47.000Z,27.31
2018-06-09T12:40:47.000Z,27.2
2018-06-09T12:50:47.000Z,27.49
2018-06-09T13:00:47.000Z,27.47
2018-06-09T13:10:47.000Z,27.51
2018-06-09T13:20:47.000Z,27.67
2018-06-09T13:30:47.000Z,27.58
2018-06-09T13:40:47.000Z,27.65
2018-06-09T13:50:47.000Z,27.71
2018-06-09T14:00:47.000Z,27.78
2018-06-09T14:10:47.000Z,27.78
2018-06-09T14:20:47.000Z,27.82
2018-06-09T14:30:47.000Z,27.79
2018-06-09T14:40:47.000Z,27.81
2018-06-09T15:00:48.000Z,27.8
2018-06-09T15:10:48.000Z,27.81
2018-06-09T15:20:48.000Z,27.81
2018-06-09T15:30:48.000Z,27.78
2018-06-09T15:40:48.000Z,27.78
2018-06-09T15:50:48.000Z,27.75
2018-06-09T16:00:49.000Z,27.78
2018-06-09T16:10:48.000Z,27.86
2018-06-09T16:20:48.000Z,27.84
2018-06-09T16:40:48.000Z,27.85
2018-06-09T16:50:48.000Z,27.9
2018-06-09T17:00:48.000Z,27.84
2018-06-09T17:10:48.000Z,27.79
2018-06-09T17:20:48.000Z,27.84
2018-06-09T17:30:48.000Z,27.85
2018-06-09T17:40:49.000Z,27.83
2018-06-09T17:50:48.000Z,27.77
2018-06-09T18:00:48.000Z,27.77
2018-06-09T18:10:48.000Z,27.74
2018-06-09T18:20:49.000Z,27.68
2018-06-09T18:30:48.000Z,27.62
2018-06-09T18:40:48.000Z,27.61
2018-06-09T18:50:48.000Z,27.56
2018-06-09T19:00:48.000Z,27.51
2018-06-09T19:10:48.000Z,27.49
2018-06-09T19:30:49.000Z,27.38
2018-06-09T19:40:49.000Z,27.34
2018-06-09T19:50:48.000Z,27.3
2018-06-09T20:00:48.000Z,26.64
2018-06-09T20:10:48.000Z,26.52
2018-06-09T20:20:48.000Z,26.63
2018-06-09T20:30:48.000Z,26.61
2018-06-09T20:40:49.000Z,26.61
2018-06-09T20:50:48.000Z,26.53
2018-06-09T21:00:48.000Z,26.41
2018-06-09T21:10:48.000Z,26.48
2018-06-09T21:20:48.000Z,26.4
2018-06-09T21:30:48.000Z,26.32
2018-06-09T21:40:48.000Z,26.3
2018-06-09T21:50:48.000Z,26.31
2018-06-09T22:00:48.000Z,26.26
2018-06-09T22:10:48.000Z,26.24
2018-06-09T22:20:48.000Z,26.17
2018-06-09T22:30:48.000Z,26.09
2018-06-09T22:40:48.000Z,26.1
2018-06-09T22:50:49.000Z,26.05
2018-06-09T23:00:48.000Z,25.98
2018-06-09T23:10:49.000Z,25.92
2018-06-09T23:20:49.000Z,25.96
2018-06-09T23:30:49.000Z,25.95
2018-06-09T23:40:49.000Z,25.93
2018-06-09T23:50:49.000Z,25.82
